Adriana — SXGS — position and weather

sailwx.info

Track history (hours):
 
Tides and Currents Weather Stations Pressure Air Temp Water Temp Dewpoint Dewpoint Depression Visibility Wind Speed Wind Dir Waves Ship Positions

Adriana

Last reported at 2018-Jun-23 23:45 UTC. Time now 2018-Jun-24 20:33 UTC.
Position N 37°58' E 023°35'.

Length 89 m; draft 7.8 m.

Type: Ship. MMSI: 240666000.

Date/timePositionNaut miles runAvg speedWind from/ knotsBaromVisibWave heightAir tempDewpointWater temp
2018-Jun-23 23:45N 37°58' E 023°35'1 2.6
2018-Jun-23 23:31N 37°57' E 023°35'4 8.0
2018-Jun-23 23:01N 37°53' E 023°33'1 2.3
2018-Jun-23 22:30N 37°52' E 023°32'0 0.1
2018-Jun-23 22:00N 37°52' E 023°32'0 0.0
2018-Jun-23 21:31N 37°52' E 023°32'0 0.0
2018-Jun-23 21:01N 37°52' E 023°32'0 0.0
2018-Jun-23 20:31N 37°52' E 023°32'0 0.0
2018-Jun-23 20:01N 37°52' E 023°32'0 0.0
2018-Jun-23 19:30N 37°52' E 023°32'0 0.1
2018-Jun-23 18:59N 37°52' E 023°32'0 0.0
2018-Jun-23 18:31N 37°52' E 023°32'1 1.9
2018-Jun-23 18:01N 37°53' E 023°32'4 7.1
2018-Jun-23 17:30N 37°56' E 023°35'1 2.6
2018-Jun-23 17:01N 37°58' E 023°35'0 0.0
2018-Jun-23 16:30N 37°58' E 023°35'0 0.0
2018-Jun-23 16:01N 37°58' E 023°35'0 0.0
2018-Jun-23 15:31N 37°58' E 023°35'0 0.0
2018-Jun-23 15:01N 37°58' E 023°35'1 2.9
2018-Jun-23 14:31N 37°58' E 023°33'4 7.4
2018-Jun-23 14:00N 38°01' E 023°35'1 1.5
2018-Jun-23 13:30N 38°02' E 023°36'0 0.1
2018-Jun-23 13:01N 38°02' E 023°36'0 0.0
2018-Jun-23 12:31N 38°02' E 023°36'0 0.0
2018-Jun-23 12:01N 38°02' E 023°36'0 0.0
2018-Jun-23 11:30N 38°02' E 023°36'0 0.0
2018-Jun-23 11:00N 38°02' E 023°36'0 0.0
2018-Jun-23 10:31N 38°02' E 023°36'0 0.8
2018-Jun-23 10:01N 38°02' E 023°35'0 0.6
2018-Jun-23 09:31N 38°02' E 023°35'0 0.0
2018-Jun-23 09:00N 38°02' E 023°35'0 0.0
2018-Jun-23 08:30N 38°02' E 023°35'0 0.0
2018-Jun-23 08:01N 38°02' E 023°35'0 0.0
2018-Jun-23 07:30N 38°02' E 023°35'0 0.0
2018-Jun-23 07:00N 38°02' E 023°35'0 0.1
2018-Jun-23 06:30N 38°02' E 023°35'0 0.2
2018-Jun-23 06:00N 38°02' E 023°35'2 3.1
2018-Jun-23 05:30N 38°00' E 023°34'3 6.3
2018-Jun-23 05:01N 37°57' E 023°34'1 2.1
2018-Jun-23 04:30N 37°57' E 023°35'0 0.0
2018-Jun-23 04:01N 37°57' E 023°35'0 0.0
2018-Jun-23 03:31N 37°57' E 023°35'0 0.0
2018-Jun-23 03:00N 37°57' E 023°35'0 0.0
2018-Jun-23 02:31N 37°57' E 023°35'0 0.0
2018-Jun-23 02:01N 37°57' E 023°35'0 0.0
2018-Jun-23 01:30N 37°57' E 023°35'0 0.0
2018-Jun-23 01:01N 37°57' E 023°35'0 0.0
2018-Jun-23 00:31N 37°57' E 023°35'0 0.0
2018-Jun-23 00:01N 37°57' E 023°35'0 0.0
2018-Jun-22 23:31N 37°57' E 023°35'1 1.1
2018-Jun-22 23:01N 37°58' E 023°35'0 0.0
2018-Jun-22 22:31N 37°58' E 023°35'0 0.0
2018-Jun-22 16:04N 37°58' E 023°35'0 0.4
2018-Jun-22 16:00N 37°58' E 023°35'3 6.6
2018-Jun-22 15:30N 37°54' E 023°34'1 2.2
2018-Jun-22 15:00N 37°53' E 023°33'0 0.0
2018-Jun-22 14:30N 37°53' E 023°33'0 0.1
2018-Jun-22 14:00N 37°53' E 023°33'0 0.0
2018-Jun-22 13:30N 37°53' E 023°33'0 0.0
2018-Jun-22 13:00N 37°53' E 023°33'0 0.0
2018-Jun-22 12:30N 37°53' E 023°33'0 0.0
2018-Jun-22 12:00N 37°53' E 023°33'0 0.2
2018-Jun-22 11:30N 37°54' E 023°33'3 6.7
2018-Jun-22 11:00N 37°57' E 023°35'1 0.1
2018-Jun-21 22:53N 37°58' E 023°35'2 4.3
2018-Jun-21 22:30N 37°56' E 023°35'4 7.4
2018-Jun-21 22:00N 37°53' E 023°31'4 7.4
2018-Jun-21 21:29N 37°52' E 023°27'4 7.5
2018-Jun-21 20:59N 37°52' E 023°22'4 7.9
2018-Jun-21 20:30N 37°52' E 023°17'4 8.0
2018-Jun-21 20:00N 37°53' E 023°12'4 7.7
2018-Jun-21 19:30N 37°54' E 023°08'2 4.1
2018-Jun-21 19:00N 37°55' E 023°05'0 0.0
2018-Jun-21 18:30N 37°55' E 023°05'0 0.0
2018-Jun-21 18:00N 37°55' E 023°05'0 0.0
2018-Jun-21 17:30N 37°55' E 023°05'0 0.0
2018-Jun-21 17:00N 37°55' E 023°05'0 0.0
2018-Jun-21 16:30N 37°55' E 023°05'0 0.0
2018-Jun-21 16:00N 37°55' E 023°05'0 0.0
2018-Jun-21 15:30N 37°55' E 023°05'0 0.0
2018-Jun-21 15:00N 37°55' E 023°05'0 0.0
2018-Jun-21 14:30N 37°55' E 023°05'0 0.0
2018-Jun-21 14:00N 37°55' E 023°05'0 0.0
2018-Jun-21 13:29N 37°55' E 023°05'0 0.0
2018-Jun-21 13:00N 37°55' E 023°05'0 0.0
2018-Jun-21 12:30N 37°55' E 023°05'0 0.0
2018-Jun-21 12:00N 37°55' E 023°05'0 0.0
2018-Jun-21 11:30N 37°55' E 023°05'0 0.0
2018-Jun-21 11:00N 37°55' E 023°05'0 0.0
2018-Jun-21 10:30N 37°55' E 023°05'0 0.0
2018-Jun-21 10:00N 37°55' E 023°05'0 0.0
2018-Jun-21 09:30N 37°55' E 023°05'0 0.0
2018-Jun-21 09:00N 37°55' E 023°05'0 0.0
2018-Jun-21 08:30N 37°55' E 023°05'0 0.0
2018-Jun-21 08:00N 37°55' E 023°05'0 0.0
2018-Jun-21 07:30N 37°55' E 023°05'1 1.2
2018-Jun-21 07:00N 37°54' E 023°06'1 2.2
2018-Jun-21 06:30N 37°55' E 023°04'0 0.2
2018-Jun-21 06:00N 37°55' E 023°04'0 0.0
2018-Jun-21 05:18N 37°55' E 023°04'0 0.0
2018-Jun-21 04:56N 37°55' E 023°04'0 0.0
2018-Jun-21 04:30N 37°55' E 023°04'0 0.0
2018-Jun-21 04:00N 37°55' E 023°04'0 0.0
2018-Jun-21 03:30N 37°55' E 023°04'0 0.0
2018-Jun-21 03:00N 37°55' E 023°04'0 0.1
2018-Jun-21 02:30N 37°55' E 023°04'0 0.0
2018-Jun-21 02:00N 37°55' E 023°04'0 0.1
2018-Jun-21 01:30N 37°55' E 023°04'0 0.0
2018-Jun-21 01:00N 37°55' E 023°04'0 0.0
2018-Jun-21 00:30N 37°55' E 023°04'0 0.0
2018-Jun-21 00:00N 37°55' E 023°04'0 0.1
2018-Jun-20 23:30N 37°55' E 023°04'0 0.0
2018-Jun-20 23:00N 37°55' E 023°04'0 0.0
2018-Jun-20 22:30N 37°55' E 023°04'0 0.0
2018-Jun-20 22:00N 37°55' E 023°04'0 0.0
2018-Jun-20 21:30N 37°55' E 023°04'0 0.0
2018-Jun-20 21:00N 37°55' E 023°04'0 0.0
2018-Jun-20 20:29N 37°55' E 023°04'0 0.0
2018-Jun-20 20:00N 37°55' E 023°04'0 0.1
2018-Jun-20 19:30N 37°55' E 023°04'0 0.0
2018-Jun-20 19:00N 37°55' E 023°04'3 6.1
2018-Jun-20 18:30N 37°54' E 023°08'4 8.5
2018-Jun-20 18:00N 37°53' E 023°13'4 8.3
2018-Jun-20 17:29N 37°53' E 023°19'4 8.5
2018-Jun-20 17:00N 37°52' E 023°24'4 8.5
2018-Jun-20 16:30N 37°53' E 023°29'4 8.8
2018-Jun-20 16:00N 37°55' E 023°34'4 7.4
2018-Jun-20 15:30N 37°56' E 023°38'0 0.1
2018-Jun-20 15:00N 37°56' E 023°38'0 0.0
2018-Jun-20 14:30N 37°56' E 023°38'0 0.0
2018-Jun-20 14:00N 37°56' E 023°38'0 0.0
2018-Jun-20 13:30N 37°56' E 023°38'0 0.0
2018-Jun-20 13:00N 37°56' E 023°38'0 0.0
2018-Jun-20 12:30N 37°56' E 023°38'0 0.0
2018-Jun-20 12:00N 37°56' E 023°38'0 0.0
2018-Jun-20 11:30N 37°56' E 023°38'0 0.0
2018-Jun-20 11:00N 37°56' E 023°38'0 0.0
2018-Jun-20 10:30N 37°56' E 023°38'0 0.0
2018-Jun-20 10:00N 37°56' E 023°38'2 4.6
2018-Jun-20 09:30N 37°57' E 023°35'1 1.7
2018-Jun-20 09:00N 37°58' E 023°35'0 0.0
2018-Jun-20 08:30N 37°58' E 023°35'0 0.0
2018-Jun-20 08:00N 37°58' E 023°35'0 0.0
2018-Jun-20 07:30N 37°58' E 023°35'0 0.0
2018-Jun-20 07:00N 37°58' E 023°35'0 0.0
2018-Jun-20 06:30N 37°58' E 023°35'0 0.0
2018-Jun-20 06:00N 37°58' E 023°35'0 0.0
2018-Jun-20 05:30N 37°58' E 023°35'0 0.0
2018-Jun-20 05:00N 37°58' E 023°35'1 2.6
2018-Jun-20 04:30N 37°57' E 023°33'4 7.3
2018-Jun-20 04:00N 38°01' E 023°35'0 0.5
2018-Jun-20 03:30N 38°01' E 023°35'0 0.0
2018-Jun-20 03:00N 38°01' E 023°35'0 0.0
2018-Jun-20 02:30N 38°01' E 023°35'0 0.1
2018-Jun-20 02:00N 38°01' E 023°35'1 1.8
2018-Jun-20 01:31N 38°02' E 023°36'0 0.2
2018-Jun-20 01:00N 38°02' E 023°36'0 0.0
2018-Jun-20 00:30N 38°02' E 023°36'0 0.0
2018-Jun-20 00:00N 38°02' E 023°36'0 0.0
2018-Jun-19 23:30N 38°02' E 023°36'0 0.0
2018-Jun-19 23:00N 38°02' E 023°36'0 0.0
2018-Jun-19 22:30N 38°02' E 023°36'0 0.0
2018-Jun-19 22:00N 38°02' E 023°36'0 0.0
2018-Jun-19 21:30N 38°02' E 023°36'0 0.0
2018-Jun-19 21:00N 38°02' E 023°36'0 0.1
2018-Jun-19 20:30N 38°02' E 023°36'1 1.3
2018-Jun-19 20:00N 38°02' E 023°35'0 0.0
2018-Jun-19 19:30N 38°02' E 023°35'0 0.0
2018-Jun-19 19:00N 38°02' E 023°35'0 0.0
2018-Jun-19 18:30N 38°02' E 023°35'0 0.0
2018-Jun-19 18:00N 38°02' E 023°35'4 7.4
2018-Jun-19 17:30N 37°58' E 023°33'2 3.2
2018-Jun-19 17:00N 37°58' E 023°35'0 0.0
2018-Jun-19 02:54N 37°58' E 023°35'1 2.5
2018-Jun-19 02:30N 37°57' E 023°36'0 0.3
2018-Jun-19 02:00N 37°57' E 023°36'0 0.0
2018-Jun-19 01:30N 37°57' E 023°36'0 0.0
2018-Jun-19 01:00N 37°57' E 023°36'0 0.0
2018-Jun-19 00:30N 37°57' E 023°36'0 0.0
2018-Jun-19 00:00N 37°57' E 023°36'0 0.0
2018-Jun-18 23:30N 37°57' E 023°36'0 0.0
2018-Jun-18 23:00N 37°57' E 023°36'0 0.0
2018-Jun-18 22:30N 37°57' E 023°36'0 0.0
2018-Jun-18 22:00N 37°57' E 023°36'0 0.0
2018-Jun-18 21:30N 37°57' E 023°36'0 0.0
2018-Jun-18 21:00N 37°57' E 023°36'0 0.2
2018-Jun-18 20:29N 37°57' E 023°36'1 2.9
2018-Jun-18 20:00N 37°56' E 023°35'4 8.4
2018-Jun-18 19:30N 37°52' E 023°32'1 1.0
2018-Jun-18 19:00N 37°52' E 023°32'0 0.0
2018-Jun-18 18:30N 37°52' E 023°32'0 0.0
2018-Jun-18 18:00N 37°52' E 023°32'0 0.1
2018-Jun-18 17:30N 37°52' E 023°32'0 0.1
2018-Jun-18 17:00N 37°52' E 023°32'0 0.1
2018-Jun-18 16:30N 37°52' E 023°32'0 0.1
2018-Jun-18 16:00N 37°52' E 023°32'0 0.0
2018-Jun-18 15:30N 37°52' E 023°32'0 0.1
2018-Jun-18 15:00N 37°52' E 023°32'0 0.1
2018-Jun-18 14:30N 37°52' E 023°32'0 0.0
2018-Jun-18 14:00N 37°52' E 023°32'0 0.1
2018-Jun-18 13:30N 37°52' E 023°32'1 1.2
2018-Jun-18 13:00N 37°52' E 023°33'4 8.8
2018-Jun-18 12:30N 37°56' E 023°35'1 2.7
2018-Jun-18 12:00N 37°58' E 023°35'0 0.0
2018-Jun-18 11:30N 37°58' E 023°35'0 0.0
2018-Jun-18 11:00N 37°58' E 023°35'0 0.0
2018-Jun-18 10:30N 37°58' E 023°35'0 0.0
2018-Jun-18 10:00N 37°58' E 023°35'0 0.0
2018-Jun-18 09:30N 37°58' E 023°35'0 0.0
2018-Jun-18 09:00N 37°58' E 023°35'0 0.0
2018-Jun-18 08:30N 37°58' E 023°35'0 0.0
2018-Jun-18 08:00N 37°58' E 023°35'0 0.0
2018-Jun-18 07:30N 37°58' E 023°35'0 0.0
2018-Jun-18 07:00N 37°58' E 023°35'0 0.0
2018-Jun-18 06:30N 37°58' E 023°35'0 0.0
2018-Jun-18 06:00N 37°58' E 023°35'0 0.0
2018-Jun-18 05:30N 37°58' E 023°35'0 0.0
2018-Jun-18 05:00N 37°58' E 023°35'0 0.0
2018-Jun-18 04:30N 37°58' E 023°35'2 3.1
2018-Jun-18 04:00N 37°58' E 023°33'4 8.3
2018-Jun-18 03:30N 38°02' E 023°35'0 0.5
2018-Jun-18 03:00N 38°02' E 023°35'0 0.0
2018-Jun-18 02:30N 38°02' E 023°35'0 0.0
2018-Jun-18 02:00N 38°02' E 023°35'0 0.0
2018-Jun-18 01:30N 38°02' E 023°35'0 0.0
2018-Jun-18 01:00N 38°02' E 023°35'0 0.0
2018-Jun-18 00:30N 38°02' E 023°35'0 0.0
2018-Jun-18 00:00N 38°02' E 023°35'0 0.0
2018-Jun-17 23:30N 38°02' E 023°35'0 0.0
2018-Jun-17 23:00N 38°02' E 023°35'0 0.0
2018-Jun-17 22:30N 38°02' E 023°35'0 0.0
2018-Jun-17 22:00N 38°02' E 023°35'0 0.0
2018-Jun-17 21:30N 38°02' E 023°35'0 0.0
2018-Jun-17 21:00N 38°02' E 023°35'1 1.1
2018-Jun-17 20:30N 38°02' E 023°36'0 0.0
2018-Jun-17 20:00N 38°02' E 023°36'0 0.0
2018-Jun-17 19:30N 38°02' E 023°36'0 0.0
2018-Jun-17 19:00N 38°02' E 023°36'0 0.0
2018-Jun-17 18:30N 38°02' E 023°36'1 1.6
2018-Jun-17 18:00N 38°01' E 023°35'4 7.7
2018-Jun-17 17:30N 37°58' E 023°33'1 2.7
2018-Jun-17 17:00N 37°58' E 023°35'0 0.0
2018-Jun-17 16:30N 37°58' E 023°35'0 0.0
2018-Jun-17 04:51N 37°58' E 023°35'1 3.9
2018-Jun-17 04:30N 37°56' E 023°35'4 8.3
2018-Jun-17 04:00N 37°53' E 023°31'4 8.2
2018-Jun-17 03:30N 37°52' E 023°26'4 8.4
2018-Jun-17 03:00N 37°52' E 023°21'4 8.5
2018-Jun-17 02:30N 37°53' E 023°16'4 8.4
2018-Jun-17 02:00N 37°54' E 023°11'4 8.2
2018-Jun-17 01:30N 37°55' E 023°05'0 0.4
2018-Jun-17 01:00N 37°55' E 023°05'0 0.0
2018-Jun-17 00:30N 37°55' E 023°05'0 0.0
2018-Jun-17 00:00N 37°55' E 023°05'0 0.0
2018-Jun-16 23:30N 37°55' E 023°05'0 0.0
2018-Jun-16 23:00N 37°55' E 023°05'0 0.0
2018-Jun-16 22:30N 37°55' E 023°05'0 0.0
2018-Jun-16 22:00N 37°55' E 023°05'0 0.0
2018-Jun-16 21:30N 37°55' E 023°05'0 0.0
2018-Jun-16 21:00N 37°55' E 023°05'0 0.0
2018-Jun-16 20:30N 37°55' E 023°05'0 0.0
2018-Jun-16 20:00N 37°55' E 023°05'0 0.0
2018-Jun-16 19:30N 37°55' E 023°05'0 0.0
2018-Jun-16 19:00N 37°55' E 023°05'0 0.0
2018-Jun-16 18:30N 37°55' E 023°05'0 0.0
2018-Jun-16 18:00N 37°55' E 023°05'0 0.0
2018-Jun-16 17:30N 37°55' E 023°05'0 0.0
2018-Jun-16 17:00N 37°55' E 023°05'0 0.0
2018-Jun-16 16:30N 37°55' E 023°05'0 0.0
2018-Jun-16 16:00N 37°55' E 023°05'0 0.0
2018-Jun-16 15:30N 37°55' E 023°05'0 0.0
2018-Jun-16 15:00N 37°55' E 023°05'0 0.0
2018-Jun-16 14:30N 37°55' E 023°05'0 0.0
2018-Jun-16 14:00N 37°55' E 023°05'0 0.0
2018-Jun-16 13:30N 37°55' E 023°05'0 0.0
2018-Jun-16 13:00N 37°55' E 023°05'0 0.0
2018-Jun-16 12:30N 37°55' E 023°05'0 0.0
2018-Jun-16 12:00N 37°55' E 023°05'0 0.5
2018-Jun-16 11:30N 37°55' E 023°06'0 0.6
2018-Jun-16 11:00N 37°55' E 023°06'0 0.0
2018-Jun-16 10:30N 37°55' E 023°06'0 0.0
2018-Jun-16 10:00N 37°55' E 023°06'0 0.1
2018-Jun-16 09:30N 37°55' E 023°06'0 0.1
2018-Jun-16 09:00N 37°55' E 023°06'0 0.0
2018-Jun-16 08:30N 37°55' E 023°06'0 0.0
2018-Jun-16 08:00N 37°55' E 023°06'0 0.0
2018-Jun-16 07:30N 37°55' E 023°06'0 0.0
2018-Jun-16 07:00N 37°55' E 023°06'0 0.0
2018-Jun-16 06:30N 37°55' E 023°06'0 0.0
2018-Jun-16 05:59N 37°55' E 023°06'2 4.4
2018-Jun-16 05:30N 37°54' E 023°09'4 8.4
2018-Jun-16 05:00N 37°54' E 023°14'4 8.4
2018-Jun-16 04:30N 37°53' E 023°19'4 8.7
2018-Jun-16 04:00N 37°52' E 023°25'4 8.2
2018-Jun-16 03:30N 37°53' E 023°30'4 8.7
2018-Jun-16 03:00N 37°56' E 023°34'2 3.9
2018-Jun-16 02:30N 37°58' E 023°35'0 0.0
2018-Jun-15 16:28N 37°58' E 023°35'1 1.3
2018-Jun-15 16:00N 37°57' E 023°35'0 0.0
2018-Jun-15 15:30N 37°57' E 023°35'0 0.0
2018-Jun-15 15:00N 37°57' E 023°35'0 0.0
2018-Jun-15 14:30N 37°57' E 023°35'0 0.0
2018-Jun-15 14:00N 37°57' E 023°35'0 0.0
2018-Jun-15 13:30N 37°57' E 023°35'0 0.0
2018-Jun-15 13:00N 37°57' E 023°35'0 0.0
2018-Jun-15 12:30N 37°57' E 023°35'0 0.0
2018-Jun-15 12:00N 37°57' E 023°35'0 0.0
2018-Jun-15 11:30N 37°57' E 023°35'0 0.0
2018-Jun-15 11:00N 37°57' E 023°35'0 0.2
2018-Jun-15 10:30N 37°57' E 023°35'1 1.1
2018-Jun-15 10:00N 37°57' E 023°35'0 0.3
2018-Jun-15 09:30N 37°58' E 023°35'0 0.0
2018-Jun-15 09:01N 37°58' E 023°35'0 0.0
2018-Jun-15 08:30N 37°58' E 023°35'0 0.0
2018-Jun-15 08:00N 37°58' E 023°35'0 0.0
2018-Jun-15 07:30N 37°58' E 023°35'0 0.0
2018-Jun-15 07:00N 37°58' E 023°35'0 0.0
2018-Jun-15 06:30N 37°58' E 023°35'0 0.0
2018-Jun-15 06:00N 37°58' E 023°35'0 0.0
2018-Jun-15 05:30N 37°58' E 023°35'0 0.0
2018-Jun-15 05:00N 37°58' E 023°35'0 0.0
2018-Jun-15 04:30N 37°58' E 023°35'1 1.1
2018-Jun-15 04:00N 37°57' E 023°34'3 6.4
2018-Jun-15 03:30N 38°01' E 023°34'2 3.5
2018-Jun-15 03:00N 38°02' E 023°35'0 0.0
2018-Jun-15 02:30N 38°02' E 023°35'0 0.1
2018-Jun-15 02:00N 38°02' E 023°35'0 0.1
2018-Jun-15 01:30N 38°02' E 023°35'0 0.1
2018-Jun-15 01:00N 38°02' E 023°35'0 0.1
2018-Jun-15 00:31N 38°02' E 023°35'0 0.1
2018-Jun-15 00:00N 38°02' E 023°35'0 0.1
2018-Jun-14 23:30N 38°02' E 023°35'0 0.0
2018-Jun-14 23:00N 38°02' E 023°35'0 0.1
2018-Jun-14 22:30N 38°02' E 023°35'0 0.1
2018-Jun-14 22:00N 38°02' E 023°35'0 0.0
2018-Jun-14 21:30N 38°02' E 023°35'0 0.1
2018-Jun-14 21:00N 38°02' E 023°35'1 1.3
2018-Jun-14 20:30N 38°02' E 023°36'0 0.0
2018-Jun-14 20:00N 38°02' E 023°36'0 0.0
2018-Jun-14 19:30N 38°02' E 023°36'0 0.0
2018-Jun-14 19:00N 38°02' E 023°36'0 0.0
2018-Jun-14 18:30N 38°02' E 023°36'0 0.0
2018-Jun-14 18:00N 38°02' E 023°36'0 0.0
2018-Jun-14 17:30N 38°02' E 023°36'0 0.5
2018-Jun-14 17:00N 38°02' E 023°35'0 1.0
2018-Jun-14 16:30N 38°02' E 023°35'0 0.0
2018-Jun-14 16:00N 38°02' E 023°35'0 0.0
2018-Jun-14 15:30N 38°02' E 023°35'0 0.1
2018-Jun-14 15:00N 38°02' E 023°35'2 4.8
2018-Jun-14 14:30N 37°60' E 023°33'3 5.0
2018-Jun-14 14:00N 37°58' E 023°35'0 0.1
2018-Jun-14 13:30N 37°58' E 023°35'0 0.1
2018-Jun-14 13:00N 37°58' E 023°35'3 6.9
2018-Jun-14 12:31N 37°54' E 023°34'2 3.7
2018-Jun-14 12:00N 37°53' E 023°33'0 0.1
2018-Jun-14 11:30N 37°53' E 023°33'0 0.2
2018-Jun-14 11:00N 37°52' E 023°33'0 0.0
2018-Jun-14 10:30N 37°52' E 023°33'1 1.1
2018-Jun-14 10:00N 37°53' E 023°33'4 8.3
2018-Jun-14 09:31N 37°57' E 023°35'  
Track history (hours):
 
Tides and Currents Weather Stations Pressure Air Temp Water Temp Dewpoint Dewpoint Depression Visibility Wind Speed Wind Dir Waves Ship Positions

Adriana

Last reported at 2018-Jun-23 23:45 UTC. Time now 2018-Jun-24 20:33 UTC.
Position N 37°58' E 023°35'.

Length 89 m; draft 7.8 m.

Type: Ship. MMSI: 240666000.

Date/timePositionNaut miles runAvg speedWind from/ knotsBaromVisibWave heightAir tempDewpointWater temp
2018-Jun-23 23:45N 37°58' E 023°35'1 2.6
2018-Jun-23 23:31N 37°57' E 023°35'4 8.0
2018-Jun-23 23:01N 37°53' E 023°33'1 2.3
2018-Jun-23 22:30N 37°52' E 023°32'0 0.1
2018-Jun-23 22:00N 37°52' E 023°32'0 0.0
2018-Jun-23 21:31N 37°52' E 023°32'0 0.0
2018-Jun-23 21:01N 37°52' E 023°32'0 0.0
2018-Jun-23 20:31N 37°52' E 023°32'0 0.0
2018-Jun-23 20:01N 37°52' E 023°32'0 0.0
2018-Jun-23 19:30N 37°52' E 023°32'0 0.1
2018-Jun-23 18:59N 37°52' E 023°32'0 0.0
2018-Jun-23 18:31N 37°52' E 023°32'1 1.9
2018-Jun-23 18:01N 37°53' E 023°32'4 7.1
2018-Jun-23 17:30N 37°56' E 023°35'1 2.6
2018-Jun-23 17:01N 37°58' E 023°35'0 0.0
2018-Jun-23 16:30N 37°58' E 023°35'0 0.0
2018-Jun-23 16:01N 37°58' E 023°35'0 0.0
2018-Jun-23 15:31N 37°58' E 023°35'0 0.0
2018-Jun-23 15:01N 37°58' E 023°35'1 2.9
2018-Jun-23 14:31N 37°58' E 023°33'4 7.4
2018-Jun-23 14:00N 38°01' E 023°35'1 1.5
2018-Jun-23 13:30N 38°02' E 023°36'0 0.1
2018-Jun-23 13:01N 38°02' E 023°36'0 0.0
2018-Jun-23 12:31N 38°02' E 023°36'0 0.0
2018-Jun-23 12:01N 38°02' E 023°36'0 0.0
2018-Jun-23 11:30N 38°02' E 023°36'0 0.0
2018-Jun-23 11:00N 38°02' E 023°36'0 0.0
2018-Jun-23 10:31N 38°02' E 023°36'0 0.8
2018-Jun-23 10:01N 38°02' E 023°35'0 0.6
2018-Jun-23 09:31N 38°02' E 023°35'0 0.0
2018-Jun-23 09:00N 38°02' E 023°35'0 0.0
2018-Jun-23 08:30N 38°02' E 023°35'0 0.0
2018-Jun-23 08:01N 38°02' E 023°35'0 0.0
2018-Jun-23 07:30N 38°02' E 023°35'0 0.0
2018-Jun-23 07:00N 38°02' E 023°35'0 0.1
2018-Jun-23 06:30N 38°02' E 023°35'0 0.2
2018-Jun-23 06:00N 38°02' E 023°35'2 3.1
2018-Jun-23 05:30N 38°00' E 023°34'3 6.3
2018-Jun-23 05:01N 37°57' E 023°34'1 2.1
2018-Jun-23 04:30N 37°57' E 023°35'0 0.0
2018-Jun-23 04:01N 37°57' E 023°35'0 0.0
2018-Jun-23 03:31N 37°57' E 023°35'0 0.0
2018-Jun-23 03:00N 37°57' E 023°35'0 0.0
2018-Jun-23 02:31N 37°57' E 023°35'0 0.0
2018-Jun-23 02:01N 37°57' E 023°35'0 0.0
2018-Jun-23 01:30N 37°57' E 023°35'0 0.0
2018-Jun-23 01:01N 37°57' E 023°35'0 0.0
2018-Jun-23 00:31N 37°57' E 023°35'0 0.0
2018-Jun-23 00:01N 37°57' E 023°35'0 0.0
2018-Jun-22 23:31N 37°57' E 023°35'1 1.1
2018-Jun-22 23:01N 37°58' E 023°35'0 0.0
2018-Jun-22 22:31N 37°58' E 023°35'0 0.0
2018-Jun-22 16:04N 37°58' E 023°35'0 0.4
2018-Jun-22 16:00N 37°58' E 023°35'3 6.6
2018-Jun-22 15:30N 37°54' E 023°34'1 2.2
2018-Jun-22 15:00N 37°53' E 023°33'0 0.0
2018-Jun-22 14:30N 37°53' E 023°33'0 0.1
2018-Jun-22 14:00N 37°53' E 023°33'0 0.0
2018-Jun-22 13:30N 37°53' E 023°33'0 0.0
2018-Jun-22 13:00N 37°53' E 023°33'0 0.0
2018-Jun-22 12:30N 37°53' E 023°33'0 0.0
2018-Jun-22 12:00N 37°53' E 023°33'0 0.2
2018-Jun-22 11:30N 37°54' E 023°33'3 6.7
2018-Jun-22 11:00N 37°57' E 023°35'1 0.1
2018-Jun-21 22:53N 37°58' E 023°35'2 4.3
2018-Jun-21 22:30N 37°56' E 023°35'4 7.4
2018-Jun-21 22:00N 37°53' E 023°31'4 7.4
2018-Jun-21 21:29N 37°52' E 023°27'4 7.5
2018-Jun-21 20:59N 37°52' E 023°22'4 7.9
2018-Jun-21 20:30N 37°52' E 023°17'4 8.0
2018-Jun-21 20:00N 37°53' E 023°12'4 7.7
2018-Jun-21 19:30N 37°54' E 023°08'2 4.1
2018-Jun-21 19:00N 37°55' E 023°05'0 0.0
2018-Jun-21 18:30N 37°55' E 023°05'0 0.0
2018-Jun-21 18:00N 37°55' E 023°05'0 0.0
2018-Jun-21 17:30N 37°55' E 023°05'0 0.0
2018-Jun-21 17:00N 37°55' E 023°05'0 0.0
2018-Jun-21 16:30N 37°55' E 023°05'0 0.0
2018-Jun-21 16:00N 37°55' E 023°05'0 0.0
2018-Jun-21 15:30N 37°55' E 023°05'0 0.0
2018-Jun-21 15:00N 37°55' E 023°05'0 0.0
2018-Jun-21 14:30N 37°55' E 023°05'0 0.0
2018-Jun-21 14:00N 37°55' E 023°05'0 0.0
2018-Jun-21 13:29N 37°55' E 023°05'0 0.0
2018-Jun-21 13:00N 37°55' E 023°05'0 0.0
2018-Jun-21 12:30N 37°55' E 023°05'0 0.0
2018-Jun-21 12:00N 37°55' E 023°05'0 0.0
2018-Jun-21 11:30N 37°55' E 023°05'0 0.0
2018-Jun-21 11:00N 37°55' E 023°05'0 0.0
2018-Jun-21 10:30N 37°55' E 023°05'0 0.0
2018-Jun-21 10:00N 37°55' E 023°05'0 0.0
2018-Jun-21 09:30N 37°55' E 023°05'0 0.0
2018-Jun-21 09:00N 37°55' E 023°05'0 0.0
2018-Jun-21 08:30N 37°55' E 023°05'0 0.0
2018-Jun-21 08:00N 37°55' E 023°05'0 0.0
2018-Jun-21 07:30N 37°55' E 023°05'1 1.2
2018-Jun-21 07:00N 37°54' E 023°06'1 2.2
2018-Jun-21 06:30N 37°55' E 023°04'0 0.2
2018-Jun-21 06:00N 37°55' E 023°04'0 0.0
2018-Jun-21 05:18N 37°55' E 023°04'0 0.0
2018-Jun-21 04:56N 37°55' E 023°04'0 0.0
2018-Jun-21 04:30N 37°55' E 023°04'0 0.0
2018-Jun-21 04:00N 37°55' E 023°04'0 0.0
2018-Jun-21 03:30N 37°55' E 023°04'0 0.0
2018-Jun-21 03:00N 37°55' E 023°04'0 0.1
2018-Jun-21 02:30N 37°55' E 023°04'0 0.0
2018-Jun-21 02:00N 37°55' E 023°04'0 0.1
2018-Jun-21 01:30N 37°55' E 023°04'0 0.0
2018-Jun-21 01:00N 37°55' E 023°04'0 0.0
2018-Jun-21 00:30N 37°55' E 023°04'0 0.0
2018-Jun-21 00:00N 37°55' E 023°04'0 0.1
2018-Jun-20 23:30N 37°55' E 023°04'0 0.0
2018-Jun-20 23:00N 37°55' E 023°04'0 0.0
2018-Jun-20 22:30N 37°55' E 023°04'0 0.0
2018-Jun-20 22:00N 37°55' E 023°04'0 0.0
2018-Jun-20 21:30N 37°55' E 023°04'0 0.0
2018-Jun-20 21:00N 37°55' E 023°04'0 0.0
2018-Jun-20 20:29N 37°55' E 023°04'0 0.0
2018-Jun-20 20:00N 37°55' E 023°04'0 0.1
2018-Jun-20 19:30N 37°55' E 023°04'0 0.0
2018-Jun-20 19:00N 37°55' E 023°04'3 6.1
2018-Jun-20 18:30N 37°54' E 023°08'4 8.5
2018-Jun-20 18:00N 37°53' E 023°13'4 8.3
2018-Jun-20 17:29N 37°53' E 023°19'4 8.5
2018-Jun-20 17:00N 37°52' E 023°24'4 8.5
2018-Jun-20 16:30N 37°53' E 023°29'4 8.8
2018-Jun-20 16:00N 37°55' E 023°34'4 7.4
2018-Jun-20 15:30N 37°56' E 023°38'0 0.1
2018-Jun-20 15:00N 37°56' E 023°38'0 0.0
2018-Jun-20 14:30N 37°56' E 023°38'0 0.0
2018-Jun-20 14:00N 37°56' E 023°38'0 0.0
2018-Jun-20 13:30N 37°56' E 023°38'0 0.0
2018-Jun-20 13:00N 37°56' E 023°38'0 0.0
2018-Jun-20 12:30N 37°56' E 023°38'0 0.0
2018-Jun-20 12:00N 37°56' E 023°38'0 0.0
2018-Jun-20 11:30N 37°56' E 023°38'0 0.0
2018-Jun-20 11:00N 37°56' E 023°38'0 0.0
2018-Jun-20 10:30N 37°56' E 023°38'0 0.0
2018-Jun-20 10:00N 37°56' E 023°38'2 4.6
2018-Jun-20 09:30N 37°57' E 023°35'1 1.7
2018-Jun-20 09:00N 37°58' E 023°35'0 0.0
2018-Jun-20 08:30N 37°58' E 023°35'0 0.0
2018-Jun-20 08:00N 37°58' E 023°35'0 0.0
2018-Jun-20 07:30N 37°58' E 023°35'0 0.0
2018-Jun-20 07:00N 37°58' E 023°35'0 0.0
2018-Jun-20 06:30N 37°58' E 023°35'0 0.0
2018-Jun-20 06:00N 37°58' E 023°35'0 0.0
2018-Jun-20 05:30N 37°58' E 023°35'0 0.0
2018-Jun-20 05:00N 37°58' E 023°35'1 2.6
2018-Jun-20 04:30N 37°57' E 023°33'4 7.3
2018-Jun-20 04:00N 38°01' E 023°35'0 0.5
2018-Jun-20 03:30N 38°01' E 023°35'0 0.0
2018-Jun-20 03:00N 38°01' E 023°35'0 0.0
2018-Jun-20 02:30N 38°01' E 023°35'0 0.1
2018-Jun-20 02:00N 38°01' E 023°35'1 1.8
2018-Jun-20 01:31N 38°02' E 023°36'0 0.2
2018-Jun-20 01:00N 38°02' E 023°36'0 0.0
2018-Jun-20 00:30N 38°02' E 023°36'0 0.0
2018-Jun-20 00:00N 38°02' E 023°36'0 0.0
2018-Jun-19 23:30N 38°02' E 023°36'0 0.0
2018-Jun-19 23:00N 38°02' E 023°36'0 0.0
2018-Jun-19 22:30N 38°02' E 023°36'0 0.0
2018-Jun-19 22:00N 38°02' E 023°36'0 0.0
2018-Jun-19 21:30N 38°02' E 023°36'0 0.0
2018-Jun-19 21:00N 38°02' E 023°36'0 0.1
2018-Jun-19 20:30N 38°02' E 023°36'1 1.3
2018-Jun-19 20:00N 38°02' E 023°35'0 0.0
2018-Jun-19 19:30N 38°02' E 023°35'0 0.0
2018-Jun-19 19:00N 38°02' E 023°35'0 0.0
2018-Jun-19 18:30N 38°02' E 023°35'0 0.0
2018-Jun-19 18:00N 38°02' E 023°35'4 7.4
2018-Jun-19 17:30N 37°58' E 023°33'2 3.2
2018-Jun-19 17:00N 37°58' E 023°35'0 0.0
2018-Jun-19 02:54N 37°58' E 023°35'1 2.5
2018-Jun-19 02:30N 37°57' E 023°36'0 0.3
2018-Jun-19 02:00N 37°57' E 023°36'0 0.0
2018-Jun-19 01:30N 37°57' E 023°36'0 0.0
2018-Jun-19 01:00N 37°57' E 023°36'0 0.0
2018-Jun-19 00:30N 37°57' E 023°36'0 0.0
2018-Jun-19 00:00N 37°57' E 023°36'0 0.0
2018-Jun-18 23:30N 37°57' E 023°36'0 0.0
2018-Jun-18 23:00N 37°57' E 023°36'0 0.0
2018-Jun-18 22:30N 37°57' E 023°36'0 0.0
2018-Jun-18 22:00N 37°57' E 023°36'0 0.0
2018-Jun-18 21:30N 37°57' E 023°36'0 0.0
2018-Jun-18 21:00N 37°57' E 023°36'0 0.2
2018-Jun-18 20:29N 37°57' E 023°36'1 2.9
2018-Jun-18 20:00N 37°56' E 023°35'4 8.4
2018-Jun-18 19:30N 37°52' E 023°32'1 1.0
2018-Jun-18 19:00N 37°52' E 023°32'0 0.0
2018-Jun-18 18:30N 37°52' E 023°32'0 0.0
2018-Jun-18 18:00N 37°52' E 023°32'0 0.1
2018-Jun-18 17:30N 37°52' E 023°32'0 0.1
2018-Jun-18 17:00N 37°52' E 023°32'0 0.1
2018-Jun-18 16:30N 37°52' E 023°32'0 0.1
2018-Jun-18 16:00N 37°52' E 023°32'0 0.0
2018-Jun-18 15:30N 37°52' E 023°32'0 0.1
2018-Jun-18 15:00N 37°52' E 023°32'0 0.1
2018-Jun-18 14:30N 37°52' E 023°32'0 0.0
2018-Jun-18 14:00N 37°52' E 023°32'0 0.1
2018-Jun-18 13:30N 37°52' E 023°32'1 1.2
2018-Jun-18 13:00N 37°52' E 023°33'4 8.8
2018-Jun-18 12:30N 37°56' E 023°35'1 2.7
2018-Jun-18 12:00N 37°58' E 023°35'0 0.0
2018-Jun-18 11:30N 37°58' E 023°35'0 0.0
2018-Jun-18 11:00N 37°58' E 023°35'0 0.0
2018-Jun-18 10:30N 37°58' E 023°35'0 0.0
2018-Jun-18 10:00N 37°58' E 023°35'0 0.0
2018-Jun-18 09:30N 37°58' E 023°35'0 0.0
2018-Jun-18 09:00N 37°58' E 023°35'0 0.0
2018-Jun-18 08:30N 37°58' E 023°35'0 0.0
2018-Jun-18 08:00N 37°58' E 023°35'0 0.0
2018-Jun-18 07:30N 37°58' E 023°35'0 0.0
2018-Jun-18 07:00N 37°58' E 023°35'0 0.0
2018-Jun-18 06:30N 37°58' E 023°35'0 0.0
2018-Jun-18 06:00N 37°58' E 023°35'0 0.0
2018-Jun-18 05:30N 37°58' E 023°35'0 0.0
2018-Jun-18 05:00N 37°58' E 023°35'0 0.0
2018-Jun-18 04:30N 37°58' E 023°35'2 3.1
2018-Jun-18 04:00N 37°58' E 023°33'4 8.3
2018-Jun-18 03:30N 38°02' E 023°35'0 0.5
2018-Jun-18 03:00N 38°02' E 023°35'0 0.0
2018-Jun-18 02:30N 38°02' E 023°35'0 0.0
2018-Jun-18 02:00N 38°02' E 023°35'0 0.0
2018-Jun-18 01:30N 38°02' E 023°35'0 0.0
2018-Jun-18 01:00N 38°02' E 023°35'0 0.0
2018-Jun-18 00:30N 38°02' E 023°35'0 0.0
2018-Jun-18 00:00N 38°02' E 023°35'0 0.0
2018-Jun-17 23:30N 38°02' E 023°35'0 0.0
2018-Jun-17 23:00N 38°02' E 023°35'0 0.0
2018-Jun-17 22:30N 38°02' E 023°35'0 0.0
2018-Jun-17 22:00N 38°02' E 023°35'0 0.0
2018-Jun-17 21:30N 38°02' E 023°35'0 0.0
2018-Jun-17 21:00N 38°02' E 023°35'1 1.1
2018-Jun-17 20:30N 38°02' E 023°36'0 0.0
2018-Jun-17 20:00N 38°02' E 023°36'0 0.0
2018-Jun-17 19:30N 38°02' E 023°36'0 0.0
2018-Jun-17 19:00N 38°02' E 023°36'0 0.0
2018-Jun-17 18:30N 38°02' E 023°36'1 1.6
2018-Jun-17 18:00N 38°01' E 023°35'4 7.7
2018-Jun-17 17:30N 37°58' E 023°33'1 2.7
2018-Jun-17 17:00N 37°58' E 023°35'0 0.0
2018-Jun-17 16:30N 37°58' E 023°35'0 0.0
2018-Jun-17 04:51N 37°58' E 023°35'1 3.9
2018-Jun-17 04:30N 37°56' E 023°35'4 8.3
2018-Jun-17 04:00N 37°53' E 023°31'4 8.2
2018-Jun-17 03:30N 37°52' E 023°26'4 8.4
2018-Jun-17 03:00N 37°52' E 023°21'4 8.5
2018-Jun-17 02:30N 37°53' E 023°16'4 8.4
2018-Jun-17 02:00N 37°54' E 023°11'4 8.2
2018-Jun-17 01:30N 37°55' E 023°05'0 0.4
2018-Jun-17 01:00N 37°55' E 023°05'0 0.0
2018-Jun-17 00:30N 37°55' E 023°05'0 0.0
2018-Jun-17 00:00N 37°55' E 023°05'0 0.0
2018-Jun-16 23:30N 37°55' E 023°05'0 0.0
2018-Jun-16 23:00N 37°55' E 023°05'0 0.0
2018-Jun-16 22:30N 37°55' E 023°05'0 0.0
2018-Jun-16 22:00N 37°55' E 023°05'0 0.0
2018-Jun-16 21:30N 37°55' E 023°05'0 0.0
2018-Jun-16 21:00N 37°55' E 023°05'0 0.0
2018-Jun-16 20:30N 37°55' E 023°05'0 0.0
2018-Jun-16 20:00N 37°55' E 023°05'0 0.0
2018-Jun-16 19:30N 37°55' E 023°05'0 0.0
2018-Jun-16 19:00N 37°55' E 023°05'0 0.0
2018-Jun-16 18:30N 37°55' E 023°05'0 0.0
2018-Jun-16 18:00N 37°55' E 023°05'0 0.0
2018-Jun-16 17:30N 37°55' E 023°05'0 0.0
2018-Jun-16 17:00N 37°55' E 023°05'0 0.0
2018-Jun-16 16:30N 37°55' E 023°05'0 0.0
2018-Jun-16 16:00N 37°55' E 023°05'0 0.0
2018-Jun-16 15:30N 37°55' E 023°05'0 0.0
2018-Jun-16 15:00N 37°55' E 023°05'0 0.0
2018-Jun-16 14:30N 37°55' E 023°05'0 0.0
2018-Jun-16 14:00N 37°55' E 023°05'0 0.0
2018-Jun-16 13:30N 37°55' E 023°05'0 0.0
2018-Jun-16 13:00N 37°55' E 023°05'0 0.0
2018-Jun-16 12:30N 37°55' E 023°05'0 0.0
2018-Jun-16 12:00N 37°55' E 023°05'0 0.5
2018-Jun-16 11:30N 37°55' E 023°06'0 0.6
2018-Jun-16 11:00N 37°55' E 023°06'0 0.0
2018-Jun-16 10:30N 37°55' E 023°06'0 0.0
2018-Jun-16 10:00N 37°55' E 023°06'0 0.1
2018-Jun-16 09:30N 37°55' E 023°06'0 0.1
2018-Jun-16 09:00N 37°55' E 023°06'0 0.0
2018-Jun-16 08:30N 37°55' E 023°06'0 0.0
2018-Jun-16 08:00N 37°55' E 023°06'0 0.0
2018-Jun-16 07:30N 37°55' E 023°06'0 0.0
2018-Jun-16 07:00N 37°55' E 023°06'0 0.0
2018-Jun-16 06:30N 37°55' E 023°06'0 0.0
2018-Jun-16 05:59N 37°55' E 023°06'2 4.4
2018-Jun-16 05:30N 37°54' E 023°09'4 8.4
2018-Jun-16 05:00N 37°54' E 023°14'4 8.4
2018-Jun-16 04:30N 37°53' E 023°19'4 8.7
2018-Jun-16 04:00N 37°52' E 023°25'4 8.2
2018-Jun-16 03:30N 37°53' E 023°30'4 8.7
2018-Jun-16 03:00N 37°56' E 023°34'2 3.9
2018-Jun-16 02:30N 37°58' E 023°35'0 0.0
2018-Jun-15 16:28N 37°58' E 023°35'1 1.3
2018-Jun-15 16:00N 37°57' E 023°35'0 0.0
2018-Jun-15 15:30N 37°57' E 023°35'0 0.0
2018-Jun-15 15:00N 37°57' E 023°35'0 0.0
2018-Jun-15 14:30N 37°57' E 023°35'0 0.0
2018-Jun-15 14:00N 37°57' E 023°35'0 0.0
2018-Jun-15 13:30N 37°57' E 023°35'0 0.0
2018-Jun-15 13:00N 37°57' E 023°35'0 0.0
2018-Jun-15 12:30N 37°57' E 023°35'0 0.0
2018-Jun-15 12:00N 37°57' E 023°35'0 0.0
2018-Jun-15 11:30N 37°57' E 023°35'0 0.0
2018-Jun-15 11:00N 37°57' E 023°35'0 0.2
2018-Jun-15 10:30N 37°57' E 023°35'1 1.1
2018-Jun-15 10:00N 37°57' E 023°35'0 0.3
2018-Jun-15 09:30N 37°58' E 023°35'0 0.0
2018-Jun-15 09:01N 37°58' E 023°35'0 0.0
2018-Jun-15 08:30N 37°58' E 023°35'0 0.0
2018-Jun-15 08:00N 37°58' E 023°35'0 0.0
2018-Jun-15 07:30N 37°58' E 023°35'0 0.0
2018-Jun-15 07:00N 37°58' E 023°35'0 0.0
2018-Jun-15 06:30N 37°58' E 023°35'0 0.0
2018-Jun-15 06:00N 37°58' E 023°35'0 0.0
2018-Jun-15 05:30N 37°58' E 023°35'0 0.0
2018-Jun-15 05:00N 37°58' E 023°35'0 0.0
2018-Jun-15 04:30N 37°58' E 023°35'1 1.1
2018-Jun-15 04:00N 37°57' E 023°34'3 6.4
2018-Jun-15 03:30N 38°01' E 023°34'2 3.5
2018-Jun-15 03:00N 38°02' E 023°35'0 0.0
2018-Jun-15 02:30N 38°02' E 023°35'0 0.1
2018-Jun-15 02:00N 38°02' E 023°35'0 0.1
2018-Jun-15 01:30N 38°02' E 023°35'0 0.1
2018-Jun-15 01:00N 38°02' E 023°35'0 0.1
2018-Jun-15 00:31N 38°02' E 023°35'0 0.1
2018-Jun-15 00:00N 38°02' E 023°35'0 0.1
2018-Jun-14 23:30N 38°02' E 023°35'0 0.0
2018-Jun-14 23:00N 38°02' E 023°35'0 0.1
2018-Jun-14 22:30N 38°02' E 023°35'0 0.1
2018-Jun-14 22:00N 38°02' E 023°35'0 0.0
2018-Jun-14 21:30N 38°02' E 023°35'0 0.1
2018-Jun-14 21:00N 38°02' E 023°35'1 1.3
2018-Jun-14 20:30N 38°02' E 023°36'0 0.0
2018-Jun-14 20:00N 38°02' E 023°36'0 0.0
2018-Jun-14 19:30N 38°02' E 023°36'0 0.0
2018-Jun-14 19:00N 38°02' E 023°36'0 0.0
2018-Jun-14 18:30N 38°02' E 023°36'0 0.0
2018-Jun-14 18:00N 38°02' E 023°36'0 0.0
2018-Jun-14 17:30N 38°02' E 023°36'0 0.5
2018-Jun-14 17:00N 38°02' E 023°35'0 1.0
2018-Jun-14 16:30N 38°02' E 023°35'0 0.0
2018-Jun-14 16:00N 38°02' E 023°35'0 0.0
2018-Jun-14 15:30N 38°02' E 023°35'0 0.1
2018-Jun-14 15:00N 38°02' E 023°35'2 4.8
2018-Jun-14 14:30N 37°60' E 023°33'3 5.0
2018-Jun-14 14:00N 37°58' E 023°35'0 0.1
2018-Jun-14 13:30N 37°58' E 023°35'0 0.1
2018-Jun-14 13:00N 37°58' E 023°35'3 6.9
2018-Jun-14 12:31N 37°54' E 023°34'2 3.7
2018-Jun-14 12:00N 37°53' E 023°33'0 0.1
2018-Jun-14 11:30N 37°53' E 023°33'0 0.2
2018-Jun-14 11:00N 37°52' E 023°33'0 0.0
2018-Jun-14 10:30N 37°52' E 023°33'1 1.1
2018-Jun-14 10:00N 37°53' E 023°33'4 8.3
2018-Jun-14 09:31N 37°57' E 023°35'  

Dump ship's entire track history